sensor_id;sensor_type;location;lat;lon;timestamp;temperature;humidity
48376;DHT22;34178;50.904;11.560;2023-05-15T00:00:01;8.80;99.90
48376;DHT22;34178;50.904;11.560;2023-05-15T00:02:27;8.80;99.90
48376;DHT22;34178;50.904;11.560;2023-05-15T00:04:52;8.70;99.90
48376;DHT22;34178;50.904;11.560;2023-05-15T00:07:18;8.70;99.90
48376;DHT22;34178;50.904;11.560;2023-05-15T00:09:44;8.60;99.90
48376;DHT22;34178;50.904;11.560;2023-05-15T00:12:09;8.50;99.90
48376;DHT22;34178;50.904;11.560;2023-05-15T00:14:35;8.50;99.90
48376;DHT22;34178;50.904;11.560;2023-05-15T00:17:01;8.50;99.90
48376;DHT22;34178;50.904;11.560;2023-05-15T00:19:26;8.50;99.90
48376;DHT22;34178;50.904;11.560;2023-05-15T00:21:52;8.40;99.90
48376;DHT22;34178;50.904;11.560;2023-05-15T00:24:18;8.40;99.90
48376;DHT22;34178;50.904;11.560;2023-05-15T00:26:44;8.40;99.90
48376;DHT22;34178;50.904;11.560;2023-05-15T00:29:09;8.40;99.90
48376;DHT22;34178;50.904;11.560;2023-05-15T00:31:35;8.40;99.90
48376;DHT22;34178;50.904;11.560;2023-05-15T00:34:01;8.40;99.90
48376;DHT22;34178;50.904;11.560;2023-05-15T00:36:26;8.40;99.90
48376;DHT22;34178;50.904;11.560;2023-05-15T00:38:52;8.30;99.90
48376;DHT22;34178;50.904;11.560;2023-05-15T00:41:19;8.30;99.90
48376;DHT22;34178;50.904;11.560;2023-05-15T00:43:49;8.20;99.90
48376;DHT22;34178;50.904;11.560;2023-05-15T00:46:15;8.20;99.90
48376;DHT22;34178;50.904;11.560;2023-05-15T00:48:42;8.20;99.90
48376;DHT22;34178;50.904;11.560;2023-05-15T00:51:08;8.20;99.90
48376;DHT22;34178;50.904;11.560;2023-05-15T00:53:34;8.20;99.90
48376;DHT22;34178;50.904;11.560;2023-05-15T00:56:00;8.20;99.90
48376;DHT22;34178;50.904;11.560;2023-05-15T00:58:28;8.30;99.90
48376;DHT22;34178;50.904;11.560;2023-05-15T01:00:54;8.30;99.90
48376;DHT22;34178;50.904;11.560;2023-05-15T01:03:20;8.20;99.90
48376;DHT22;34178;50.904;11.560;2023-05-15T01:05:46;8.30;99.90
48376;DHT22;34178;50.904;11.560;2023-05-15T01:08:26;8.30;99.90
48376;DHT22;34178;50.904;11.560;2023-05-15T01:10:53;8.30;99.90
48376;DHT22;34178;50.904;11.560;2023-05-15T01:13:21;8.30;99.90
48376;DHT22;34178;50.904;11.560;2023-05-15T01:15:48;8.30;99.90
48376;DHT22;34178;50.904;11.560;2023-05-15T01:18:14;8.40;99.90
48376;DHT22;34178;50.904;11.560;2023-05-15T01:27:18;8.30;99.90
48376;DHT22;34178;50.904;11.560;2023-05-15T01:32:13;8.10;99.90
48376;DHT22;34178;50.904;11.560;2023-05-15T01:34:54;8.00;99.90
48376;DHT22;34178;50.904;11.560;2023-05-15T01:37:24;8.00;99.90
48376;DHT22;34178;50.904;11.560;2023-05-15T01:39:54;8.00;99.90
48376;DHT22;34178;50.904;11.560;2023-05-15T01:42:22;7.90;99.90
48376;DHT22;34178;50.904;11.560;2023-05-15T01:44:54;7.90;99.90
48376;DHT22;34178;50.904;11.560;2023-05-15T01:47:46;7.80;99.90
48376;DHT22;34178;50.904;11.560;2023-05-15T01:50:15;7.80;99.90
48376;DHT22;34178;50.904;11.560;2023-05-15T01:52:48;7.80;99.90
48376;DHT22;34178;50.904;11.560;2023-05-15T01:55:15;7.80;99.90
48376;DHT22;34178;50.904;11.560;2023-05-15T01:57:42;7.70;99.90
48376;DHT22;34178;50.904;11.560;2023-05-15T02:00:10;7.70;99.90
48376;DHT22;34178;50.904;11.560;2023-05-15T02:02:36;7.70;99.90
48376;DHT22;34178;50.904;11.560;2023-05-15T02:05:02;7.70;99.90
48376;DHT22;34178;50.904;11.560;2023-05-15T02:07:29;7.70;99.90
48376;DHT22;34178;50.904;11.560;2023-05-15T02:09:56;7.70;99.90
48376;DHT22;34178;50.904;11.560;2023-05-15T02:12:23;7.70;99.90
48376;DHT22;34178;50.904;11.560;2023-05-15T02:14:51;7.60;99.90
48376;DHT22;34178;50.904;11.560;2023-05-15T02:17:17;7.60;99.90
48376;DHT22;34178;50.904;11.560;2023-05-15T02:19:43;7.70;99.90
48376;DHT22;34178;50.904;11.560;2023-05-15T02:22:08;7.70;99.90
48376;DHT22;34178;50.904;11.560;2023-05-15T02:24:34;7.70;99.90
48376;DHT22;34178;50.904;11.560;2023-05-15T02:27:26;7.80;99.90
48376;DHT22;34178;50.904;11.560;2023-05-15T02:32:59;7.70;99.90
48376;DHT22;34178;50.904;11.560;2023-05-15T02:35:52;7.50;99.90
48376;DHT22;34178;50.904;11.560;2023-05-15T02:38:51;7.40;99.90
48376;DHT22;34178;50.904;11.560;2023-05-15T02:41:18;7.40;99.90
48376;DHT22;34178;50.904;11.560;2023-05-15T02:43:45;7.50;99.90
48376;DHT22;34178;50.904;11.560;2023-05-15T02:46:13;7.50;99.90
48376;DHT22;34178;50.904;11.560;2023-05-15T02:48:40;7.40;99.90
48376;DHT22;34178;50.904;11.560;2023-05-15T02:51:07;7.40;99.90
48376;DHT22;34178;50.904;11.560;2023-05-15T02:53:41;7.40;99.90
48376;DHT22;34178;50.904;11.560;2023-05-15T02:56:07;7.40;99.90
48376;DHT22;34178;50.904;11.560;2023-05-15T02:58:34;7.40;99.90
48376;DHT22;34178;50.904;11.560;2023-05-15T03:01:00;7.50;99.90
48376;DHT22;34178;50.904;11.560;2023-05-15T03:03:25;7.50;99.90
48376;DHT22;34178;50.904;11.560;2023-05-15T03:05:51;7.60;99.90
48376;DHT22;34178;50.904;11.560;2023-05-15T03:08:17;7.70;99.90
48376;DHT22;34178;50.904;11.560;2023-05-15T03:10:43;7.80;99.90
48376;DHT22;34178;50.904;11.560;2023-05-15T03:13:09;7.80;99.90
48376;DHT22;34178;50.904;11.560;2023-05-15T03:15:35;7.90;99.90
48376;DHT22;34178;50.904;11.560;2023-05-15T03:18:01;7.80;99.90
48376;DHT22;34178;50.904;11.560;2023-05-15T03:20:27;7.50;99.90
48376;DHT22;34178;50.904;11.560;2023-05-15T03:22:53;7.50;99.90
48376;DHT22;34178;50.904;11.560;2023-05-15T03:25:18;7.60;99.90
48376;DHT22;34178;50.904;11.560;2023-05-15T03:27:45;7.70;99.90
48376;DHT22;34178;50.904;11.560;2023-05-15T03:30:11;7.70;99.90
48376;DHT22;34178;50.904;11.560;2023-05-15T03:32:37;7.70;99.90
48376;DHT22;34178;50.904;11.560;2023-05-15T03:35:02;7.80;99.90
48376;DHT22;34178;50.904;11.560;2023-05-15T03:37:28;7.80;99.90
48376;DHT22;34178;50.904;11.560;2023-05-15T03:39:54;7.90;99.90
48376;DHT22;34178;50.904;11.560;2023-05-15T03:42:20;7.60;99.90
48376;DHT22;34178;50.904;11.560;2023-05-15T03:44:48;7.60;99.90
48376;DHT22;34178;50.904;11.560;2023-05-15T03:47:14;7.60;99.90
48376;DHT22;34178;50.904;11.560;2023-05-15T03:49:40;7.60;99.90
48376;DHT22;34178;50.904;11.560;2023-05-15T03:52:06;7.70;99.90
48376;DHT22;34178;50.904;11.560;2023-05-15T03:54:32;7.50;99.90
48376;DHT22;34178;50.904;11.560;2023-05-15T03:56:58;7.60;99.90
48376;DHT22;34178;50.904;11.560;2023-05-15T03:59:24;7.70;99.90
48376;DHT22;34178;50.904;11.560;2023-05-15T04:01:49;7.80;99.90
48376;DHT22;34178;50.904;11.560;2023-05-15T04:04:15;7.90;99.90
48376;DHT22;34178;50.904;11.560;2023-05-15T04:06:41;7.90;99.90
48376;DHT22;34178;50.904;11.560;2023-05-15T04:09:06;7.90;99.90
48376;DHT22;34178;50.904;11.560;2023-05-15T04:11:32;7.70;99.90
48376;DHT22;34178;50.904;11.560;2023-05-15T04:13:59;7.70;99.90
48376;DHT22;34178;50.904;11.560;2023-05-15T04:16:25;7.50;99.90
48376;DHT22;34178;50.904;11.560;2023-05-15T04:18:51;7.40;99.90
48376;DHT22;34178;50.904;11.560;2023-05-15T04:21:16;7.40;99.90
48376;DHT22;34178;50.904;11.560;2023-05-15T04:23:42;7.60;99.90
48376;DHT22;34178;50.904;11.560;2023-05-15T04:26:08;7.70;99.90
48376;DHT22;34178;50.904;11.560;2023-05-15T04:28:34;7.80;99.90
48376;DHT22;34178;50.904;11.560;2023-05-15T04:31:00;7.70;99.90
48376;DHT22;34178;50.904;11.560;2023-05-15T04:33:26;7.60;99.90
48376;DHT22;34178;50.904;11.560;2023-05-15T04:35:51;7.70;99.90
48376;DHT22;34178;50.904;11.560;2023-05-15T04:38:17;7.80;99.90
48376;DHT22;34178;50.904;11.560;2023-05-15T04:40:44;7.80;99.90
48376;DHT22;34178;50.904;11.560;2023-05-15T04:43:09;8.00;99.90
48376;DHT22;34178;50.904;11.560;2023-05-15T04:45:35;8.10;99.90
48376;DHT22;34178;50.904;11.560;2023-05-15T04:48:01;8.10;99.90
48376;DHT22;34178;50.904;11.560;2023-05-15T04:50:27;8.00;99.90
48376;DHT22;34178;50.904;11.560;2023-05-15T04:52:53;7.90;99.90
48376;DHT22;34178;50.904;11.560;2023-05-15T04:55:18;8.10;99.90
48376;DHT22;34178;50.904;11.560;2023-05-15T04:57:45;8.30;99.90
48376;DHT22;34178;50.904;11.560;2023-05-15T05:00:12;8.40;99.90
48376;DHT22;34178;50.904;11.560;2023-05-15T05:02:38;8.60;99.90
48376;DHT22;34178;50.904;11.560;2023-05-15T05:05:05;8.70;99.90
48376;DHT22;34178;50.904;11.560;2023-05-15T05:07:32;8.80;99.90
48376;DHT22;34178;50.904;11.560;2023-05-15T05:09:58;8.90;99.90
48376;DHT22;34178;50.904;11.560;2023-05-15T05:12:24;9.00;99.90
48376;DHT22;34178;50.904;11.560;2023-05-15T05:14:49;9.10;99.90
48376;DHT22;34178;50.904;11.560;2023-05-15T05:17:15;9.20;99.90
48376;DHT22;34178;50.904;11.560;2023-05-15T05:19:41;9.20;99.90
48376;DHT22;34178;50.904;11.560;2023-05-15T05:22:07;9.40;99.90
48376;DHT22;34178;50.904;11.560;2023-05-15T05:24:33;9.40;99.90
48376;DHT22;34178;50.904;11.560;2023-05-15T05:27:02;9.60;99.90
48376;DHT22;34178;50.904;11.560;2023-05-15T05:29:29;9.40;99.90
48376;DHT22;34178;50.904;11.560;2023-05-15T05:31:55;9.40;99.90
48376;DHT22;34178;50.904;11.560;2023-05-15T05:34:21;9.40;99.90
48376;DHT22;34178;50.904;11.560;2023-05-15T05:36:47;9.50;99.90
48376;DHT22;34178;50.904;11.560;2023-05-15T05:39:13;9.40;99.90
48376;DHT22;34178;50.904;11.560;2023-05-15T05:41:40;9.50;99.90
48376;DHT22;34178;50.904;11.560;2023-05-15T05:44:06;9.60;99.90
48376;DHT22;34178;50.904;11.560;2023-05-15T05:46:31;9.80;99.90
48376;DHT22;34178;50.904;11.560;2023-05-15T05:48:57;10.00;99.90
48376;DHT22;34178;50.904;11.560;2023-05-15T05:51:23;10.20;99.90
48376;DHT22;34178;50.904;11.560;2023-05-15T05:53:49;10.30;99.90
48376;DHT22;34178;50.904;11.560;2023-05-15T05:56:15;10.40;99.90
48376;DHT22;34178;50.904;11.560;2023-05-15T05:58:40;10.40;99.90
48376;DHT22;34178;50.904;11.560;2023-05-15T06:01:06;10.40;99.90
48376;DHT22;34178;50.904;11.560;2023-05-15T06:03:33;10.60;99.90
48376;DHT22;34178;50.904;11.560;2023-05-15T06:05:59;10.70;99.90
48376;DHT22;34178;50.904;11.560;2023-05-15T06:08:25;10.70;99.90
48376;DHT22;34178;50.904;11.560;2023-05-15T06:10:50;10.50;99.90
48376;DHT22;34178;50.904;11.560;2023-05-15T06:13:16;10.50;99.90
48376;DHT22;34178;50.904;11.560;2023-05-15T06:15:42;10.60;99.90
48376;DHT22;34178;50.904;11.560;2023-05-15T06:18:10;10.70;99.90
48376;DHT22;34178;50.904;11.560;2023-05-15T06:20:36;10.80;99.90
48376;DHT22;34178;50.904;11.560;2023-05-15T06:23:02;10.90;99.90
48376;DHT22;34178;50.904;11.560;2023-05-15T06:25:28;10.90;99.90
48376;DHT22;34178;50.904;11.560;2023-05-15T06:27:54;11.00;99.90
48376;DHT22;34178;50.904;11.560;2023-05-15T06:30:20;11.10;99.90
48376;DHT22;34178;50.904;11.560;2023-05-15T06:32:45;11.20;99.90
48376;DHT22;34178;50.904;11.560;2023-05-15T06:35:11;11.20;99.90
48376;DHT22;34178;50.904;11.560;2023-05-15T06:37:37;11.30;99.90
48376;DHT22;34178;50.904;11.560;2023-05-15T06:40:04;11.40;99.90
48376;DHT22;34178;50.904;11.560;2023-05-15T06:42:30;11.50;99.90
48376;DHT22;34178;50.904;11.560;2023-05-15T06:44:56;11.60;99.90
48376;DHT22;34178;50.904;11.560;2023-05-15T06:47:21;11.70;99.90
48376;DHT22;34178;50.904;11.560;2023-05-15T06:49:47;11.80;99.90
48376;DHT22;34178;50.904;11.560;2023-05-15T06:52:13;11.90;99.90
48376;DHT22;34178;50.904;11.560;2023-05-15T06:54:39;12.00;99.90
48376;DHT22;34178;50.904;11.560;2023-05-15T06:57:07;12.10;99.90
48376;DHT22;34178;50.904;11.560;2023-05-15T06:59:33;12.30;99.90
48376;DHT22;34178;50.904;11.560;2023-05-15T07:02:01;12.40;99.90
48376;DHT22;34178;50.904;11.560;2023-05-15T07:04:27;12.50;99.90
48376;DHT22;34178;50.904;11.560;2023-05-15T07:06:53;12.60;99.90
48376;DHT22;34178;50.904;11.560;2023-05-15T07:09:18;12.70;99.90
48376;DHT22;34178;50.904;11.560;2023-05-15T07:11:44;12.80;99.90
48376;DHT22;34178;50.904;11.560;2023-05-15T07:14:10;12.90;99.90
48376;DHT22;34178;50.904;11.560;2023-05-15T07:16:35;13.00;99.90
48376;DHT22;34178;50.904;11.560;2023-05-15T07:19:01;13.00;99.90
48376;DHT22;34178;50.904;11.560;2023-05-15T07:21:27;13.10;99.90
48376;DHT22;34178;50.904;11.560;2023-05-15T07:23:52;13.20;99.90
48376;DHT22;34178;50.904;11.560;2023-05-15T07:26:18;13.30;99.90
48376;DHT22;34178;50.904;11.560;2023-05-15T07:28:44;13.40;99.90
48376;DHT22;34178;50.904;11.560;2023-05-15T07:31:09;13.60;99.90
48376;DHT22;34178;50.904;11.560;2023-05-15T07:33:35;13.70;99.90
48376;DHT22;34178;50.904;11.560;2023-05-15T07:36:01;13.80;99.90
48376;DHT22;34178;50.904;11.560;2023-05-15T07:38:26;13.90;99.90
48376;DHT22;34178;50.904;11.560;2023-05-15T07:40:52;14.00;99.90
48376;DHT22;34178;50.904;11.560;2023-05-15T07:43:18;14.10;99.90
48376;DHT22;34178;50.904;11.560;2023-05-15T07:45:43;14.30;99.90
48376;DHT22;34178;50.904;11.560;2023-05-15T07:48:16;14.40;99.90
48376;DHT22;34178;50.904;11.560;2023-05-15T07:50:43;14.50;99.90
48376;DHT22;34178;50.904;11.560;2023-05-15T07:53:10;14.60;99.90
48376;DHT22;34178;50.904;11.560;2023-05-15T07:55:36;14.70;99.90
48376;DHT22;34178;50.904;11.560;2023-05-15T07:58:02;14.80;99.90
48376;DHT22;34178;50.904;11.560;2023-05-15T08:00:28;15.00;99.90
48376;DHT22;34178;50.904;11.560;2023-05-15T08:02:53;15.20;99.90
48376;DHT22;34178;50.904;11.560;2023-05-15T08:05:19;15.30;99.90
48376;DHT22;34178;50.904;11.560;2023-05-15T08:07:45;15.40;99.90
48376;DHT22;34178;50.904;11.560;2023-05-15T08:10:10;15.70;99.90
48376;DHT22;34178;50.904;11.560;2023-05-15T08:12:36;15.90;99.90
48376;DHT22;34178;50.904;11.560;2023-05-15T08:15:02;16.20;99.90
48376;DHT22;34178;50.904;11.560;2023-05-15T08:17:28;16.30;99.90
48376;DHT22;34178;50.904;11.560;2023-05-15T08:19:54;16.30;99.90
48376;DHT22;34178;50.904;11.560;2023-05-15T08:22:20;16.40;99.90
48376;DHT22;34178;50.904;11.560;2023-05-15T08:24:46;16.50;99.90
48376;DHT22;34178;50.904;11.560;2023-05-15T08:27:12;16.50;99.90
48376;DHT22;34178;50.904;11.560;2023-05-15T08:29:38;16.60;99.90
48376;DHT22;34178;50.904;11.560;2023-05-15T08:32:05;16.80;99.40
48376;DHT22;34178;50.904;11.560;2023-05-15T08:34:31;17.10;99.90
48376;DHT22;34178;50.904;11.560;2023-05-15T08:36:58;17.10;99.40
48376;DHT22;34178;50.904;11.560;2023-05-15T08:39:23;17.20;99.00
48376;DHT22;34178;50.904;11.560;2023-05-15T08:44:30;17.30;99.60
48376;DHT22;34178;50.904;11.560;2023-05-15T08:46:57;17.20;99.30
48376;DHT22;34178;50.904;11.560;2023-05-15T08:52:06;17.20;99.20
48376;DHT22;34178;50.904;11.560;2023-05-15T08:54:33;17.40;99.00
48376;DHT22;34178;50.904;11.560;2023-05-15T08:56:59;17.40;98.60
48376;DHT22;34178;50.904;11.560;2023-05-15T08:59:26;17.40;98.50
48376;DHT22;34178;50.904;11.560;2023-05-15T09:01:52;17.50;98.60
48376;DHT22;34178;50.904;11.560;2023-05-15T09:04:19;17.60;98.10
48376;DHT22;34178;50.904;11.560;2023-05-15T09:06:46;17.60;98.40
48376;DHT22;34178;50.904;11.560;2023-05-15T09:09:12;17.70;99.80
48376;DHT22;34178;50.904;11.560;2023-05-15T09:11:45;17.70;98.90
48376;DHT22;34178;50.904;11.560;2023-05-15T09:14:12;17.80;98.60
48376;DHT22;34178;50.904;11.560;2023-05-15T09:16:38;18.00;98.70
48376;DHT22;34178;50.904;11.560;2023-05-15T09:19:04;18.10;95.80
48376;DHT22;34178;50.904;11.560;2023-05-15T09:21:31;18.20;96.60
48376;DHT22;34178;50.904;11.560;2023-05-15T09:24:22;18.20;96.80
48376;DHT22;34178;50.904;11.560;2023-05-15T09:27:03;18.30;97.90
48376;DHT22;34178;50.904;11.560;2023-05-15T09:29:30;18.40;95.90
48376;DHT22;34178;50.904;11.560;2023-05-15T09:32:00;18.20;96.10
48376;DHT22;34178;50.904;11.560;2023-05-15T09:34:31;18.20;97.60
48376;DHT22;34178;50.904;11.560;2023-05-15T09:36:57;18.20;96.40
48376;DHT22;34178;50.904;11.560;2023-05-15T09:39:23;18.10;95.50
48376;DHT22;34178;50.904;11.560;2023-05-15T09:41:49;18.20;95.70
48376;DHT22;34178;50.904;11.560;2023-05-15T09:44:25;18.20;94.90
48376;DHT22;34178;50.904;11.560;2023-05-15T09:46:52;18.20;95.40
48376;DHT22;34178;50.904;11.560;2023-05-15T09:49:21;18.40;95.20
48376;DHT22;34178;50.904;11.560;2023-05-15T09:51:47;18.60;95.20
48376;DHT22;34178;50.904;11.560;2023-05-15T09:54:16;18.80;93.80
48376;DHT22;34178;50.904;11.560;2023-05-15T09:56:43;18.90;93.40
48376;DHT22;34178;50.904;11.560;2023-05-15T09:59:12;18.80;93.20
48376;DHT22;34178;50.904;11.560;2023-05-15T10:01:41;18.90;93.30
48376;DHT22;34178;50.904;11.560;2023-05-15T10:04:09;18.90;94.00
48376;DHT22;34178;50.904;11.560;2023-05-15T10:06:46;19.10;93.40
48376;DHT22;34178;50.904;11.560;2023-05-15T10:09:13;19.00;90.90
48376;DHT22;34178;50.904;11.560;2023-05-15T10:11:40;18.90;90.50
48376;DHT22;34178;50.904;11.560;2023-05-15T10:14:10;18.80;90.40
48376;DHT22;34178;50.904;11.560;2023-05-15T10:16:37;18.80;91.70
48376;DHT22;34178;50.904;11.560;2023-05-15T10:19:11;18.80;91.50
48376;DHT22;34178;50.904;11.560;2023-05-15T10:21:38;18.80;90.80
48376;DHT22;34178;50.904;11.560;2023-05-15T10:24:05;18.70;89.50
48376;DHT22;34178;50.904;11.560;2023-05-15T10:26:39;18.80;89.90
48376;DHT22;34178;50.904;11.560;2023-05-15T10:29:16;18.90;90.00
48376;DHT22;34178;50.904;11.560;2023-05-15T10:31:42;19.00;90.60
48376;DHT22;34178;50.904;11.560;2023-05-15T10:34:09;19.10;90.20
48376;DHT22;34178;50.904;11.560;2023-05-15T10:36:36;19.20;91.00
48376;DHT22;34178;50.904;11.560;2023-05-15T10:39:04;19.10;90.30
48376;DHT22;34178;50.904;11.560;2023-05-15T10:41:32;19.40;90.70
48376;DHT22;34178;50.904;11.560;2023-05-15T10:44:01;19.40;90.10
48376;DHT22;34178;50.904;11.560;2023-05-15T10:46:28;19.50;90.50
48376;DHT22;34178;50.904;11.560;2023-05-15T10:48:55;19.70;91.50
48376;DHT22;34178;50.904;11.560;2023-05-15T10:51:29;19.90;91.40
48376;DHT22;34178;50.904;11.560;2023-05-15T10:53:56;20.10;90.40
48376;DHT22;34178;50.904;11.560;2023-05-15T10:56:27;20.10;87.90
48376;DHT22;34178;50.904;11.560;2023-05-15T10:58:54;20.30;90.70
48376;DHT22;34178;50.904;11.560;2023-05-15T11:01:31;20.60;90.40
48376;DHT22;34178;50.904;11.560;2023-05-15T11:04:16;20.90;90.40
48376;DHT22;34178;50.904;11.560;2023-05-15T11:06:45;21.30;91.50
48376;DHT22;34178;50.904;11.560;2023-05-15T11:14:21;21.20;88.00
48376;DHT22;34178;50.904;11.560;2023-05-15T11:27:03;19.80;90.00
48376;DHT22;34178;50.904;11.560;2023-05-15T11:29:29;19.40;91.20
48376;DHT22;34178;50.904;11.560;2023-05-15T11:31:56;18.80;92.50
48376;DHT22;34178;50.904;11.560;2023-05-15T11:34:32;18.40;94.70
48376;DHT22;34178;50.904;11.560;2023-05-15T11:36:58;17.80;97.20
48376;DHT22;34178;50.904;11.560;2023-05-15T11:39:27;17.30;99.90
48376;DHT22;34178;50.904;11.560;2023-05-15T11:41:53;17.10;99.90
48376;DHT22;34178;50.904;11.560;2023-05-15T11:44:20;16.90;99.90
48376;DHT22;34178;50.904;11.560;2023-05-15T11:46:48;16.80;99.90
48376;DHT22;34178;50.904;11.560;2023-05-15T11:49:15;17.00;99.90
48376;DHT22;34178;50.904;11.560;2023-05-15T11:51:42;17.00;99.90
48376;DHT22;34178;50.904;11.560;2023-05-15T11:54:09;17.20;99.90
48376;DHT22;34178;50.904;11.560;2023-05-15T11:56:41;17.10;99.90
48376;DHT22;34178;50.904;11.560;2023-05-15T11:59:13;17.20;99.90
48376;DHT22;34178;50.904;11.560;2023-05-15T12:01:43;17.30;99.90
48376;DHT22;34178;50.904;11.560;2023-05-15T12:04:15;17.20;99.90
48376;DHT22;34178;50.904;11.560;2023-05-15T12:06:42;17.40;99.90
48376;DHT22;34178;50.904;11.560;2023-05-15T12:09:15;17.70;99.90
48376;DHT22;34178;50.904;11.560;2023-05-15T12:11:48;17.90;99.90
48376;DHT22;34178;50.904;11.560;2023-05-15T12:14:15;18.30;99.90
48376;DHT22;34178;50.904;11.560;2023-05-15T12:16:41;18.80;99.90
48376;DHT22;34178;50.904;11.560;2023-05-15T12:19:06;19.10;99.90
48376;DHT22;34178;50.904;11.560;2023-05-15T12:21:32;19.40;99.70
48376;DHT22;34178;50.904;11.560;2023-05-15T12:23:58;20.00;98.80
48376;DHT22;34178;50.904;11.560;2023-05-15T12:26:24;20.10;97.40
48376;DHT22;34178;50.904;11.560;2023-05-15T12:28:50;20.20;97.80
48376;DHT22;34178;50.904;11.560;2023-05-15T12:31:17;19.90;98.40
48376;DHT22;34178;50.904;11.560;2023-05-15T12:33:44;20.20;96.50
48376;DHT22;34178;50.904;11.560;2023-05-15T12:36:10;20.70;96.20
48376;DHT22;34178;50.904;11.560;2023-05-15T12:38:36;20.60;96.70
48376;DHT22;34178;50.904;11.560;2023-05-15T12:41:02;20.90;98.50
48376;DHT22;34178;50.904;11.560;2023-05-15T12:43:30;20.80;94.60
48376;DHT22;34178;50.904;11.560;2023-05-15T12:45:56;20.70;95.30
48376;DHT22;34178;50.904;11.560;2023-05-15T12:48:27;20.50;95.00
48376;DHT22;34178;50.904;11.560;2023-05-15T12:50:53;20.60;95.00
48376;DHT22;34178;50.904;11.560;2023-05-15T12:53:20;20.90;95.60
48376;DHT22;34178;50.904;11.560;2023-05-15T12:55:46;21.40;93.20
48376;DHT22;34178;50.904;11.560;2023-05-15T12:58:14;21.50;92.00
48376;DHT22;34178;50.904;11.560;2023-05-15T13:00:43;21.30;91.30
48376;DHT22;34178;50.904;11.560;2023-05-15T13:03:12;21.60;90.60
48376;DHT22;34178;50.904;11.560;2023-05-15T13:05:41;22.70;90.20
48376;DHT22;34178;50.904;11.560;2023-05-15T13:08:07;23.90;85.40
48376;DHT22;34178;50.904;11.560;2023-05-15T13:10:35;23.80;84.90
48376;DHT22;34178;50.904;11.560;2023-05-15T13:13:01;23.70;85.40
48376;DHT22;34178;50.904;11.560;2023-05-15T13:15:47;23.10;83.10
48376;DHT22;34178;50.904;11.560;2023-05-15T13:18:14;22.40;80.90
48376;DHT22;34178;50.904;11.560;2023-05-15T13:20:45;22.30;82.70
48376;DHT22;34178;50.904;11.560;2023-05-15T13:23:13;22.30;82.00
48376;DHT22;34178;50.904;11.560;2023-05-15T13:25:40;22.80;81.60
48376;DHT22;34178;50.904;11.560;2023-05-15T13:28:07;24.20;80.30
48376;DHT22;34178;50.904;11.560;2023-05-15T13:30:33;25.00;75.00
48376;DHT22;34178;50.904;11.560;2023-05-15T13:33:00;24.80;77.50
48376;DHT22;34178;50.904;11.560;2023-05-15T13:35:26;24.80;74.80
48376;DHT22;34178;50.904;11.560;2023-05-15T13:37:52;24.30;75.50
48376;DHT22;34178;50.904;11.560;2023-05-15T13:40:18;24.10;71.90
48376;DHT22;34178;50.904;11.560;2023-05-15T13:42:44;23.10;74.10
48376;DHT22;34178;50.904;11.560;2023-05-15T13:45:12;22.70;74.90
48376;DHT22;34178;50.904;11.560;2023-05-15T13:47:38;24.20;77.30
48376;DHT22;34178;50.904;11.560;2023-05-15T13:50:08;25.70;75.00
48376;DHT22;34178;50.904;11.560;2023-05-15T13:52:34;25.80;71.30
48376;DHT22;34178;50.904;11.560;2023-05-15T13:55:00;25.10;71.60
48376;DHT22;34178;50.904;11.560;2023-05-15T13:57:25;25.00;71.00
48376;DHT22;34178;50.904;11.560;2023-05-15T13:59:51;24.30;72.80
48376;DHT22;34178;50.904;11.560;2023-05-15T14:02:17;24.90;73.20
48376;DHT22;34178;50.904;11.560;2023-05-15T14:04:43;24.80;73.10
48376;DHT22;34178;50.904;11.560;2023-05-15T14:07:08;24.10;73.20
48376;DHT22;34178;50.904;11.560;2023-05-15T14:09:34;23.60;74.10
48376;DHT22;34178;50.904;11.560;2023-05-15T14:12:00;24.10;72.90
48376;DHT22;34178;50.904;11.560;2023-05-15T14:14:25;24.60;73.70
48376;DHT22;34178;50.904;11.560;2023-05-15T14:16:51;24.30;72.60
48376;DHT22;34178;50.904;11.560;2023-05-15T14:19:17;24.80;71.00
48376;DHT22;34178;50.904;11.560;2023-05-15T14:21:42;24.60;72.10
48376;DHT22;34178;50.904;11.560;2023-05-15T14:24:08;24.50;70.50
48376;DHT22;34178;50.904;11.560;2023-05-15T14:26:34;24.20;71.50
48376;DHT22;34178;50.904;11.560;2023-05-15T14:28:59;24.70;70.90
48376;DHT22;34178;50.904;11.560;2023-05-15T14:31:25;26.10;73.10
48376;DHT22;34178;50.904;11.560;2023-05-15T14:33:51;27.80;67.70
48376;DHT22;34178;50.904;11.560;2023-05-15T14:36:17;30.10;68.60
48376;DHT22;34178;50.904;11.560;2023-05-15T14:38:42;30.30;62.70
48376;DHT22;34178;50.904;11.560;2023-05-15T14:41:12;30.70;61.70
48376;DHT22;34178;50.904;11.560;2023-05-15T14:43:38;29.20;60.80
48376;DHT22;34178;50.904;11.560;2023-05-15T14:46:04;26.60;64.30
48376;DHT22;34178;50.904;11.560;2023-05-15T14:48:30;27.50;65.70
48376;DHT22;34178;50.904;11.560;2023-05-15T14:50:56;28.10;62.00
48376;DHT22;34178;50.904;11.560;2023-05-15T14:53:22;28.20;61.80
48376;DHT22;34178;50.904;11.560;2023-05-15T14:55:48;27.90;63.00
48376;DHT22;34178;50.904;11.560;2023-05-15T14:58:14;26.80;63.30
48376;DHT22;34178;50.904;11.560;2023-05-15T15:00:39;26.50;64.20
48376;DHT22;34178;50.904;11.560;2023-05-15T15:03:06;25.30;65.80
48376;DHT22;34178;50.904;11.560;2023-05-15T15:05:32;24.40;67.20
48376;DHT22;34178;50.904;11.560;2023-05-15T15:08:08;24.70;68.50
48376;DHT22;34178;50.904;11.560;2023-05-15T15:10:38;25.30;65.10
48376;DHT22;34178;50.904;11.560;2023-05-15T15:13:05;24.10;65.40
48376;DHT22;34178;50.904;11.560;2023-05-15T15:15:32;23.60;66.30
48376;DHT22;34178;50.904;11.560;2023-05-15T15:17:58;24.80;65.20
48376;DHT22;34178;50.904;11.560;2023-05-15T15:20:25;26.30;65.10
48376;DHT22;34178;50.904;11.560;2023-05-15T15:22:51;27.60;62.90
48376;DHT22;34178;50.904;11.560;2023-05-15T15:25:17;28.50;61.00
48376;DHT22;34178;50.904;11.560;2023-05-15T15:27:43;28.10;62.50
48376;DHT22;34178;50.904;11.560;2023-05-15T15:30:09;27.50;60.40
48376;DHT22;34178;50.904;11.560;2023-05-15T15:32:36;28.40;62.20
48376;DHT22;34178;50.904;11.560;2023-05-15T15:35:02;29.60;59.20
48376;DHT22;34178;50.904;11.560;2023-05-15T15:37:30;29.40;58.60
48376;DHT22;34178;50.904;11.560;2023-05-15T15:40:00;29.70;58.90
48376;DHT22;34178;50.904;11.560;2023-05-15T15:42:27;29.60;59.00
48376;DHT22;34178;50.904;11.560;2023-05-15T15:44:57;29.30;59.80
48376;DHT22;34178;50.904;11.560;2023-05-15T15:47:22;27.70;58.90
48376;DHT22;34178;50.904;11.560;2023-05-15T15:49:52;28.00;59.80
48376;DHT22;34178;50.904;11.560;2023-05-15T15:52:18;29.40;60.00
48376;DHT22;34178;50.904;11.560;2023-05-15T15:54:44;30.50;58.10